VOK weather

Volk Field
Camp Douglas, Wisconsin, United States

Public forecast

Using degrees Fahrenheit for public forecast. Weather courtesy of forecast.io.

Current aviation weather report (METAR) for Volk Field

Retrieved 2019/10/17 23:32 UTC (21 minutes ago):

KVOK 172332Z AUTO 10004KT 3SM -RA BR CLR 06/04 A2998 RMK AO2 RAB31 SLP162

Aviation forecast (TAF) for Volk Field

Forecast is more than 6 hours old.

Retrieved 2019/10/17 17:06 UTC (7 hours ago):

TAF TAF KVOK 171700Z 1717/1823 VRB06KT 9999 BKN020 BKN040 QNH3000INS BECMG 1723/1724 VRB06KT 9999 SCT025 QNH2999INS BECMG 1808/1809 14009KT 9999 SCT015 QNH2998INS BECMG 1815/1816 16010G15KT 9999 SKC QNH2973INS TX10/1817Z TN03/1811Z LAST NO AMDS AFT 1721 NEXT 1809